Time;durP1;ratioP1;P1;durP2;ratioP2;P2;SDS_P1;SDS_P2;PMS_P1;PMS_P2;Temp;Humidity;BMP_temperature;BMP_pressure;BME280_temperature;BME280_humidity;BME280_pressure;Samples;Min_cycle;Max_cycle;Signal;HPM_P1;HPM_P2
2023/03/27 00:00:58;;;;;;;9.50;5.60;;;;;;;9.81;100.00;98149.77;79423;1298;3013593;-69
2023/03/27 00:03:27;;;;;;;8.80;6.40;;;;;;;9.67;100.00;98154.36;78229;1298;3052883;-68
2023/03/27 00:06:02;;;;;;;10.70;5.50;;;;;;;9.50;100.00;98159.88;79522;1298;3013761;-70
2023/03/27 00:08:30;;;;;;;8.70;6.20;;;;;;;9.24;100.00;98158.34;78329;1297;3051745;-69
2023/03/27 00:11:03;;;;;;;5.20;3.50;;;;;;;9.06;100.00;98155.89;79480;1294;3011409;-67
2023/03/27 00:13:32;;;;;;;5.80;3.70;;;;;;;9.57;100.00;98156.56;78329;1297;3048683;-67
2023/03/27 00:15:59;;;;;;;9.10;4.40;;;;;;;9.67;100.00;98153.48;79535;1296;3011954;-68
2023/03/27 00:18:26;;;;;;;6.10;4.70;;;;;;;9.88;100.00;98152.70;79585;1298;3013148;-69
2023/03/27 00:20:59;;;;;;;8.20;5.30;;;;;;;9.94;100.00;98160.30;78433;1309;3053886;-68
2023/03/27 00:23:29;;;;;;;8.20;6.40;;;;;;;9.67;100.00;98160.16;79637;1298;3011626;-67
2023/03/27 00:25:57;;;;;;;7.80;5.80;;;;;;;9.18;100.00;98167.72;78264;1298;3052428;-69
2023/03/27 00:28:28;;;;;;;8.30;4.60;;;;;;;8.93;100.00;98165.55;79588;1298;3013750;-69
2023/03/27 00:30:57;;;;;;;9.00;5.60;;;;;;;9.93;100.00;98160.72;78394;1298;3050261;-70
2023/03/27 00:33:23;;;;;;;9.20;5.80;;;;;;;10.13;100.00;98152.19;79688;1296;3013241;-70
2023/03/27 00:35:50;;;;;;;9.00;5.90;;;;;;;10.23;100.00;98150.11;79576;1295;3011707;-69
2023/03/27 00:38:20;;;;;;;7.20;5.30;;;;;;;9.83;100.00;98148.58;78424;1298;3051306;-68
2023/03/27 00:41:43;;;;;;;14.00;8.60;;;;;;;9.70;100.00;98146.27;80168;1304;3011847;-69
2023/03/27 00:44:38;;;;;;;12.30;8.10;;;;;;;9.44;100.00;98149.66;79102;1306;3013607;-67
2023/03/27 00:47:11;;;;;;;9.20;5.80;;;;;;;9.41;100.00;98149.87;77963;1303;3054881;-70
2023/03/27 00:49:38;;;;;;;10.50;6.90;;;;;;;9.94;100.00;98145.27;79050;1302;3013433;-69
2023/03/27 00:52:07;;;;;;;10.90;7.70;;;;;;;10.00;100.00;98148.80;77940;1303;3069176;-68
2023/03/27 00:54:37;;;;;;;12.50;8.40;;;;;;;9.98;100.00;98146.90;77615;1299;3013195;-66
2023/03/27 00:57:06;;;;;;;14.30;9.20;;;;;;;9.78;100.00;98150.55;77979;1301;3054796;-68
2023/03/27 00:59:35;;;;;;;12.80;8.80;;;;;;;9.40;100.00;98152.58;79356;1298;3013710;-68
2023/03/27 01:02:04;;;;;;;12.90;8.80;;;;;;;9.18;100.00;98149.92;77927;1303;3049557;-68
2023/03/27 01:04:32;;;;;;;8.90;5.10;;;;;;;9.08;100.00;98151.88;79072;1303;3013453;-68
2023/03/27 01:06:59;;;;;;;9.90;6.00;;;;;;;9.72;100.00;98155.04;79277;1297;3012307;-68
2023/03/27 01:09:28;;;;;;;9.20;6.50;;;;;;;10.15;100.00;98155.86;78241;1299;3050923;-72
2023/03/27 01:12:18;;;;;;;9.40;6.80;;;;;;;10.09;100.00;98159.64;79364;1298;3013654;-68
2023/03/27 01:14:53;;;;;;;11.50;8.00;;;;;;;9.85;100.00;98164.54;78021;1298;3053961;-70
2023/03/27 01:17:53;;;;;;;13.10;8.10;;;;;;;9.58;100.00;98166.64;78793;1300;3011680;-68
2023/03/27 01:20:41;;;;;;;13.40;9.50;;;;;;;9.45;100.00;98172.48;78102;1298;3050737;-68
2023/03/27 01:23:40;;;;;;;10.10;7.00;;;;;;;9.27;100.00;98173.33;78127;1304;3053900;-68
2023/03/27 01:26:14;;;;;;;12.50;7.20;;;;;;;9.82;100.00;98175.41;78036;1303;3054447;-68
2023/03/27 01:28:56;;;;;;;15.60;7.80;;;;;;;9.97;100.00;98179.52;79268;1303;3013688;-67
2023/03/27 01:32:06;;;;;;;10.90;7.70;;;;;;;10.01;100.00;98184.98;77973;1298;3050456;-68
2023/03/27 01:34:41;;;;;;;18.80;8.60;;;;;;;9.57;100.00;98187.70;78063;1298;3055935;-68
2023/03/27 01:37:36;;;;;;;18.00;10.50;;;;;;;9.35;100.00;98186.89;78156;1300;3048995;-67
2023/03/27 01:40:15;;;;;;;14.70;10.00;;;;;;;9.09;100.00;98193.87;78135;1298;3052863;-67
2023/03/27 01:42:52;;;;;;;8.00;5.90;;;;;;;8.93;100.00;98186.68;78183;1300;3050264;-66
2023/03/27 01:45:25;;;;;;;12.30;7.60;;;;;;;9.88;100.00;98192.21;78101;1302;3053456;-66
2023/03/27 01:47:59;;;;;;;13.40;7.70;;;;;;;10.25;100.00;98189.41;78800;1302;3012053;-69
2023/03/27 01:50:31;;;;;;;14.70;9.60;;;;;;;10.27;100.00;98189.02;79424;1302;3013219;-68
2023/03/27 01:53:03;;;;;;;10.70;7.40;;;;;;;9.79;100.00;98190.89;78174;1301;3067601;-67
2023/03/27 01:55:33;;;;;;;16.40;10.80;;;;;;;9.51;100.00;98188.97;79390;1299;3013118;-67
2023/03/27 01:58:06;;;;;;;16.10;10.00;;;;;;;9.12;100.00;98188.09;78097;1300;3057024;-67
2023/03/27 02:00:34;;;;;;;10.50;7.00;;;;;;;9.07;100.00;98193.70;79318;1303;3012331;-69
2023/03/27 02:03:14;;;;;;;15.90;8.70;;;;;;;9.92;100.00;98189.80;78127;1302;3052652;-67
2023/03/27 02:05:47;;;;;;;15.80;9.80;;;;;;;10.07;100.00;98188.29;78824;1303;3012129;-67
2023/03/27 02:08:17;;;;;;;19.50;13.00;;;;;;;10.07;100.00;98186.55;79355;1300;3011937;-66
2023/03/27 02:10:48;;;;;;;18.60;12.60;;;;;;;9.88;100.00;98186.33;78164;1300;3052538;-68
2023/03/27 02:13:20;;;;;;;21.80;13.60;;;;;;;9.41;100.00;98183.83;79184;1303;3013724;-66
2023/03/27 02:15:48;;;;;;;24.90;14.10;;;;;;;9.14;100.00;98180.20;78094;1303;3068995;-67
2023/03/27 02:18:22;;;;;;;16.20;9.40;;;;;;;8.98;100.00;98182.33;79349;1301;3018756;-65
2023/03/27 02:20:50;;;;;;;;;;;;;;;9.63;100.00;98179.82;78172;1301;3050023;-67
2023/03/27 02:23:17;;;;;;;25.90;13.20;;;;;;;10.06;100.00;98181.73;79251;1303;3018412;-68
2023/03/27 02:25:44;;;;;;;29.40;17.50;;;;;;;9.79;100.00;98180.35;79406;1299;3011737;-68
2023/03/27 02:28:38;;;;;;;30.00;18.70;;;;;;;9.68;100.00;98181.41;78105;1303;3026600;-66
2023/03/27 02:31:35;;;;;;;24.00;14.20;;;;;;;9.17;100.00;98181.39;78109;1298;3069426;-68
2023/03/27 02:34:31;;;;;;;23.90;14.10;;;;;;;8.93;100.00;98187.24;78158;1300;3050014;-66
2023/03/27 02:37:15;;;;;;;17.00;10.40;;;;;;;8.86;100.00;98189.13;78103;1301;3056272;-66
2023/03/27 02:40:12;;;;;;;18.10;11.10;;;;;;;9.53;100.00;98192.11;78124;1298;3050081;-68
2023/03/27 02:42:47;;;;;;;18.90;12.90;;;;;;;9.96;100.00;98193.77;78104;1303;3053162;-70
2023/03/27 02:45:25;;;;;;;20.30;12.20;;;;;;;9.67;100.00;98199.27;78832;1301;3011936;-68
2023/03/27 02:47:58;;;;;;;21.10;13.80;;;;;;;9.60;100.00;98194.44;78096;1298;3050315;-68
2023/03/27 02:50:40;;;;;;;22.90;14.00;;;;;;;9.12;100.00;98201.83;79343;1303;3011650;-68
2023/03/27 02:53:15;;;;;;;12.50;8.30;;;;;;;8.92;100.00;98199.83;78210;1300;3052239;-67
2023/03/27 02:55:45;;;;;;;14.50;8.60;;;;;;;9.29;100.00;98206.38;79306;1303;3011558;-67
2023/03/27 02:58:17;;;;;;;12.00;8.00;;;;;;;9.97;100.00;98213.96;78164;1298;3051303;-66
2023/03/27 03:00:52;;;;;;;14.30;9.40;;;;;;;9.57;100.00;98215.78;78198;1300;3057143;-69
2023/03/27 03:03:37;;;;;;;14.10;9.20;;;;;;;9.36;100.00;98210.89;78209;1300;3049079;-70
2023/03/27 03:06:17;;;;;;;13.60;9.80;;;;;;;8.96;100.00;98205.88;78182;1298;3053099;-68
2023/03/27 03:08:45;;;;;;;12.50;8.30;;;;;;;8.73;100.00;98207.56;79343;1301;3019253;-71
2023/03/27 03:11:13;;;;;;;8.20;5.80;;;;;;;8.60;100.00;98207.39;79384;1301;3013666;-68
2023/03/27 03:13:41;;;;;;;8.80;6.20;;;;;;;8.96;100.00;98200.61;78119;1301;3069275;-69
2023/03/27 03:16:08;;;;;;;10.10;6.40;;;;;;;9.36;100.00;98205.83;79306;1297;3013427;-69
2023/03/27 03:18:35;;;;;;;9.50;7.00;;;;;;;9.24;100.00;98205.31;79372;1297;3011881;-69
2023/03/27 03:21:05;;;;;;;14.40;9.30;;;;;;;9.04;100.00;98204.77;78094;1302;3053351;-70
2023/03/27 03:23:32;;;;;;;12.60;8.60;;;;;;;8.76;100.00;98206.75;79390;1301;3015554;-68
2023/03/27 03:26:07;;;;;;;12.90;8.50;;;;;;;8.53;100.00;98200.23;78128;1303;3052964;-69
2023/03/27 03:28:46;;;;;;;7.70;4.80;;;;;;;8.31;100.00;98196.36;78176;1300;3068814;-68
2023/03/27 03:31:13;;;;;;;8.20;5.40;;;;;;;8.94;100.00;98200.77;79406;1302;3011778;-68
2023/03/27 03:33:44;;;;;;;8.90;5.90;;;;;;;9.16;100.00;98194.91;78182;1301;3056105;-67
2023/03/27 03:36:13;;;;;;;9.10;6.10;;;;;;;9.16;100.00;98196.02;79318;1298;3013649;-67
2023/03/27 03:38:41;;;;;;;10.70;6.90;;;;;;;8.79;100.00;98194.20;79366;1299;3011656;-71
2023/03/27 03:41:15;;;;;;;8.50;5.60;;;;;;;8.70;100.00;98203.05;78237;1299;3053408;-68
2023/03/27 03:43:41;;;;;;;8.20;5.70;;;;;;;8.52;100.00;98206.78;79485;1301;3013450;-67
2023/03/27 03:46:09;;;;;;;5.90;4.10;;;;;;;8.52;100.00;98215.52;79360;1302;3012203;-68
2023/03/27 03:48:37;;;;;;;9.00;5.30;;;;;;;9.19;100.00;98220.55;78086;1300;3055562;-65
2023/03/27 03:51:13;;;;;;;6.60;4.80;;;;;;;9.58;100.00;98221.87;78798;1303;3011686;-69
2023/03/27 03:53:39;;;;;;;8.10;5.60;;;;;;;9.47;100.00;98226.88;79413;1302;3020754;-67
2023/03/27 03:56:06;;;;;;;11.50;7.40;;;;;;;9.36;100.00;98228.21;79361;1300;3011801;-67
2023/03/27 03:58:35;;;;;;;14.40;9.40;;;;;;;8.98;100.00;98232.46;78358;1302;3025908;-69
2023/03/27 04:01:03;;;;;;;10.10;7.00;;;;;;;8.51;100.00;98240.55;79384;1301;3012331;-70
2023/03/27 04:03:38;;;;;;;8.00;5.00;;;;;;;8.48;100.00;98233.94;78364;1301;3068956;-67
2023/03/27 04:06:06;;;;;;;8.40;5.90;;;;;;;9.09;100.00;98229.85;79353;1299;3013377;-70
2023/03/27 04:08:33;;;;;;;12.00;7.10;;;;;;;9.25;100.00;98233.36;79275;1299;3013274;-66
2023/03/27 04:11:10;;;;;;;11.40;7.30;;;;;;;9.27;100.00;98231.73;78129;1297;3053137;-66
2023/03/27 04:14:16;;;;;;;12.70;8.40;;;;;;;9.15;100.00;98236.81;77743;1307;3051194;-67
2023/03/27 04:16:43;;;;;;;14.20;9.10;;;;;;;9.05;100.00;98238.23;78991;1317;3012872;-66
2023/03/27 04:19:21;;;;;;;19.80;11.10;;;;;;;8.94;100.00;98242.30;77919;1307;3070452;-67
2023/03/27 04:21:53;;;;;;;10.40;6.90;;;;;;;8.64;100.00;98254.09;79348;1300;3013612;-68
2023/03/27 04:24:22;;;;;;;19.10;10.00;;;;;;;9.28;100.00;98254.17;78185;1300;3057656;-68
2023/03/27 04:26:50;;;;;;;19.90;11.70;;;;;;;9.97;100.00;98254.39;79346;1300;3011729;-68
2023/03/27 04:29:16;;;;;;;19.80;11.60;;;;;;;9.52;100.00;98260.92;79361;1301;3013833;-68
2023/03/27 04:32:05;;;;;;;21.80;13.10;;;;;;;9.48;100.00;98273.29;77882;1301;3053522;-67
2023/03/27 04:34:42;;;;;;;25.10;14.40;;;;;;;9.34;100.00;98277.27;78139;1300;3052986;-67
2023/03/27 04:37:14;;;;;;;20.70;11.60;;;;;;;8.90;100.00;98273.88;79359;1300;3012887;-66
2023/03/27 04:39:48;;;;;;;;;;;;;;;8.83;100.00;98281.91;78150;1301;3050953;-67
2023/03/27 04:42:21;;;;;;;13.40;7.90;;;;;;;9.51;100.00;98286.88;79296;1304;3013039;-67
2023/03/27 04:44:51;;;;;;;20.40;10.50;;;;;;;9.85;100.00;98287.63;78089;1302;3048972;-67
2023/03/27 04:47:19;;;;;;;22.50;12.30;;;;;;;9.54;100.00;98284.91;79393;1296;3013215;-67
2023/03/27 04:49:49;;;;;;;21.40;13.30;;;;;;;9.36;100.00;98287.27;78192;1300;3050262;-69
2023/03/27 04:52:20;;;;;;;27.80;15.30;;;;;;;9.31;100.00;98286.75;79355;1297;3011663;-67
2023/03/27 04:54:50;;;;;;;27.20;14.00;;;;;;;8.92;100.00;98282.64;78132;1309;3053402;-69
2023/03/27 04:57:17;;;;;;;17.10;9.90;;;;;;;8.93;100.00;98284.65;79334;1302;3013705;-68
2023/03/27 04:59:50;;;;;;;17.70;10.40;;;;;;;9.55;100.00;98287.64;78217;1300;3057279;-67
2023/03/27 05:02:37;;;;;;;20.60;11.30;;;;;;;10.12;100.00;98289.27;78148;1301;3049666;-65
2023/03/27 05:05:13;;;;;;;24.10;14.00;;;;;;;10.11;100.00;98298.79;78137;1300;3052831;-67
2023/03/27 05:07:44;;;;;;;22.80;13.30;;;;;;;9.87;100.00;98295.86;79447;1301;3011624;-66
2023/03/27 05:10:16;;;;;;;28.20;16.80;;;;;;;9.65;100.00;98303.11;78179;1299;3052810;-68
2023/03/27 05:12:46;;;;;;;29.20;15.90;;;;;;;9.40;100.00;98303.92;79599;1301;3012700;-66
2023/03/27 05:15:16;;;;;;;19.10;10.50;;;;;;;9.29;100.00;98301.23;78086;1303;3067539;-67
2023/03/27 05:17:44;;;;;;;20.70;11.90;;;;;;;10.08;100.00;98300.70;79419;1300;3013135;-67
2023/03/27 05:20:18;;;;;;;23.70;12.50;;;;;;;10.70;100.00;98301.73;78123;1300;3026931;-68
2023/03/27 05:22:46;;;;;;;30.40;16.40;;;;;;;10.74;100.00;98302.63;79311;1296;3012759;-70
2023/03/27 05:25:22;;;;;;;33.10;18.70;;;;;;;10.27;100.00;98302.45;78141;1297;3052696;-65
2023/03/27 05:27:57;;;;;;;33.50;19.00;;;;;;;9.93;100.00;98304.89;78134;1303;3050080;-69
2023/03/27 05:30:27;;;;;;;40.40;21.60;;;;;;;9.64;100.00;98307.20;79397;1299;3011906;-68
2023/03/27 05:33:16;;;;;;;35.80;20.10;;;;;;;9.36;100.00;98306.17;78205;1301;3052850;-67
2023/03/27 05:35:46;;;;;;;24.70;14.10;;;;;;;9.41;100.00;98309.29;79416;1302;3013435;-67
2023/03/27 05:38:14;;;;;;;31.00;15.50;;;;;;;9.85;100.00;98307.36;78149;1297;3055968;-70
2023/03/27 05:41:14;;;;;;;35.20;20.20;;;;;;;10.40;100.00;98311.80;78237;1301;3049015;-68
2023/03/27 05:43:45;;;;;;;42.70;24.40;;;;;;;10.31;100.00;98311.59;79395;1296;3011609;-70
2023/03/27 05:46:18;;;;;;;42.60;24.60;;;;;;;10.40;100.00;98318.63;78233;1298;3050650;-68
2023/03/27 05:48:49;;;;;;;45.40;26.70;;;;;;;10.09;100.00;98325.91;79188;1302;3011718;-67
2023/03/27 05:51:17;;;;;;;42.80;26.80;;;;;;;10.01;100.00;98327.66;78167;1296;3026680;-65
2023/03/27 05:53:45;;;;;;;48.90;28.00;;;;;;;9.85;100.00;98330.33;79246;1299;3013486;-65
2023/03/27 05:56:20;;;;;;;28.80;15.90;;;;;;;9.67;100.00;98331.82;78133;1296;3056606;-68
2023/03/27 05:59:01;;;;;;;29.60;15.80;;;;;;;10.30;100.00;98341.27;78213;1301;3051677;-69
2023/03/27 06:01:28;;;;;;;30.50;19.70;;;;;;;10.92;100.00;98354.62;79531;1295;3013315;-65
2023/03/27 06:03:58;;;;;;;33.80;20.80;;;;;;;10.70;100.00;98356.02;78927;1300;3012088;-65
2023/03/27 06:06:31;;;;;;;38.40;21.70;;;;;;;10.62;100.00;98358.58;79458;1301;3011912;-70
2023/03/27 06:09:00;;;;;;;40.40;23.10;;;;;;;10.36;100.00;98363.88;78053;1301;3054597;-66
2023/03/27 06:11:27;;;;;;;38.30;22.90;;;;;;;9.80;100.00;98363.20;79441;1301;3013645;-65
2023/03/27 06:13:54;;;;;;;32.50;20.60;;;;;;;9.93;100.00;98370.80;79404;1296;3011735;-68
2023/03/27 06:16:27;;;;;;;36.10;20.60;;;;;;;9.79;100.00;98364.85;78405;1301;3049909;-59
2023/03/27 06:19:23;;;;;;;20.40;12.70;;;;;;;9.69;100.00;98373.13;78049;1302;3053720;-60
2023/03/27 06:21:51;;;;;;;24.80;15.20;;;;;;;10.24;100.00;98376.88;79203;1298;3011966;-60
2023/03/27 06:24:19;;;;;;;27.50;16.20;;;;;;;10.84;100.00;98380.32;77993;1296;3028089;-59
2023/03/27 06:26:51;;;;;;;31.80;17.00;;;;;;;10.93;100.00;98379.58;79105;1302;3011639;-71
2023/03/27 06:29:20;;;;;;;29.80;17.90;;;;;;;10.91;100.00;98389.10;78291;1304;3069988;-71
2023/03/27 06:31:48;;;;;;;28.10;17.90;;;;;;;10.86;100.00;98387.69;79514;1296;3016130;-71
2023/03/27 06:34:39;;;;;;;26.30;16.70;;;;;;;10.69;100.00;98396.35;78220;1299;3049447;-74
2023/03/27 06:37:39;;;;;;;25.80;16.70;;;;;;;10.41;100.00;98399.61;78177;1294;3054240;-71
2023/03/27 06:40:09;;;;;;;31.60;16.90;;;;;;;10.25;100.00;98407.75;79587;1294;3012929;-74
2023/03/27 06:42:37;;;;;;;34.60;17.50;;;;;;;10.22;100.00;98414.66;78258;1300;3052391;-73
2023/03/27 06:45:27;;;;;;;29.30;17.20;;;;;;;10.16;100.00;98410.52;78330;1301;3053352;-73
2023/03/27 06:48:15;;;;;;;17.20;10.30;;;;;;;10.17;100.00;98413.24;78190;1300;3071147;-73
2023/03/27 06:50:43;;;;;;;25.10;13.30;;;;;;;11.16;100.00;98414.75;79618;1295;3013939;-73
2023/03/27 06:53:15;;;;;;;22.70;12.90;;;;;;;11.69;99.93;98415.41;78928;1295;3011959;-76
2023/03/27 06:55:44;;;;;;;;;;;;;;;11.76;100.00;98419.27;79677;1295;3011614;-70
2023/03/27 06:58:15;;;;;;;22.90;14.40;;;;;;;11.69;99.97;98408.78;78229;1301;3053018;-72
2023/03/27 07:00:43;;;;;;;25.10;15.90;;;;;;;11.51;100.00;98410.04;79455;1296;3013257;-70
2023/03/27 07:03:15;;;;;;;27.90;15.90;;;;;;;11.24;100.00;98419.73;78318;1299;3052657;-72
2023/03/27 07:06:02;;;;;;;27.80;15.90;;;;;;;11.07;100.00;98427.75;78299;1300;3052743;-71
2023/03/27 07:08:51;;;;;;;25.00;14.10;;;;;;;10.86;100.00;98422.92;78139;1301;3067976;-72
2023/03/27 07:11:18;;;;;;;27.00;15.40;;;;;;;10.94;100.00;98421.36;79331;1300;3013051;-70
2023/03/27 07:13:55;;;;;;;26.20;14.20;;;;;;;10.79;100.00;98425.91;78128;1299;3051197;-71
2023/03/27 07:16:26;;;;;;;;;;;;;;;10.64;100.00;98426.38;79453;1295;3011823;-73
2023/03/27 07:19:04;;;;;;;27.90;14.30;;;;;;;10.43;100.00;98428.36;78072;1300;3049846;-72
2023/03/27 07:21:31;;;;;;;13.90;8.70;;;;;;;10.65;100.00;98429.11;79516;1299;3011696;-71
2023/03/27 07:24:01;;;;;;;17.50;10.10;;;;;;;11.32;100.00;98429.48;79022;1296;3011948;-74
2023/03/27 07:26:32;;;;;;;17.80;11.40;;;;;;;12.02;99.44;98423.06;79444;1297;3011718;-73
2023/03/27 07:29:02;;;;;;;22.40;12.20;;;;;;;11.78;99.13;98419.77;78332;1300;3051742;-71
2023/03/27 07:31:35;;;;;;;23.60;12.40;;;;;;;11.40;99.89;98417.60;79444;1295;3011626;-74
2023/03/27 07:34:04;;;;;;;26.40;13.10;;;;;;;11.44;100.00;98417.27;78331;1300;3049170;-73
2023/03/27 07:37:07;;;;;;;;;;;;;;;11.60;99.56;98415.92;78296;1306;3055579;-69
2023/03/27 07:39:36;;;;;;;16.60;9.60;;;;;;;11.52;97.60;98415.23;80602;1298;3011924;-70
2023/03/27 07:42:03;;;;;;;24.00;11.80;;;;;;;11.55;95.98;98410.95;80553;1299;3012028;-70
2023/03/27 07:44:46;;;;;;;21.70;12.60;;;;;;;11.36;100.00;98416.52;79135;1300;3069317;-76
2023/03/27 07:47:14;;;;;;;24.30;14.00;;;;;;;11.17;100.00;98418.42;79625;1301;3013158;-73
2023/03/27 07:49:40;;;;;;;24.10;13.60;;;;;;;10.96;100.00;98425.78;79531;1295;3011631;-72
2023/03/27 07:52:14;;;;;;;23.20;12.80;;;;;;;11.04;100.00;98420.75;78114;1300;3053070;-75
2023/03/27 07:54:48;;;;;;;22.20;12.90;;;;;;;11.24;100.00;98415.02;78065;1300;3051007;-74
2023/03/27 07:57:15;;;;;;;23.60;13.80;;;;;;;11.25;100.00;98411.95;79439;1300;3014293;-70
2023/03/27 08:00:00;;;;;;;22.40;13.00;;;;;;;11.20;100.00;98411.84;78422;1298;3068754;-72
2023/03/27 08:02:50;;;;;;;25.70;12.90;;;;;;;11.20;100.00;98418.43;78243;1295;3050410;-74
2023/03/27 08:05:17;;;;;;;16.00;8.10;;;;;;;11.35;100.00;98417.66;79461;1300;3011895;-74
2023/03/27 08:07:51;;;;;;;16.80;10.30;;;;;;;11.90;97.97;98422.98;78211;1295;3050491;-73
2023/03/27 08:10:39;;;;;;;20.70;11.40;;;;;;;12.32;94.67;98413.55;78174;1303;3054260;-73
2023/03/27 08:13:07;;;;;;;20.70;12.70;;;;;;;12.52;94.46;98415.23;79403;1300;3011708;-73
2023/03/27 08:15:37;;;;;;;23.80;12.50;;;;;;;12.64;94.76;98417.67;78876;1300;3011904;-72
2023/03/27 08:18:07;;;;;;;24.40;13.60;;;;;;;12.73;93.51;98419.92;79346;1303;3013368;-71
2023/03/27 08:20:37;;;;;;;20.40;12.30;;;;;;;12.69;92.62;98420.27;78226;1295;3026634;-73
2023/03/27 08:23:05;;;;;;;18.60;10.40;;;;;;;12.72;92.04;98420.40;79381;1297;3011576;-70
2023/03/27 08:25:34;;;;;;;16.60;10.70;;;;;;;12.69;90.70;98417.65;78187;1298;3027747;-72
2023/03/27 08:28:04;;;;;;;18.50;10.80;;;;;;;12.73;91.53;98417.64;79493;1295;3011933;-70
2023/03/27 08:30:32;;;;;;;16.80;8.10;;;;;;;12.72;91.61;98416.88;78332;1298;3026466;-70
2023/03/27 08:32:59;;;;;;;12.40;7.60;;;;;;;12.64;88.37;98421.91;79490;1298;3013109;-69
2023/03/27 08:35:26;;;;;;;13.80;8.30;;;;;;;12.56;90.45;98425.44;79571;1300;3011555;-66
2023/03/27 08:37:54;;;;;;;14.30;8.30;;;;;;;12.58;91.45;98424.89;78492;1298;3068527;-65
2023/03/27 08:41:05;;;;;;;10.20;6.90;;;;;;;12.61;90.64;98422.73;78146;1303;3053249;-68
2023/03/27 08:43:42;;;;;;;9.40;7.00;;;;;;;12.73;89.72;98427.27;77972;1301;3055553;-65
2023/03/27 08:46:20;;;;;;;9.50;6.10;;;;;;;12.80;89.03;98429.73;79196;1297;3012973;-67
2023/03/27 08:49:04;;;;;;;8.70;6.70;;;;;;;12.89;88.28;98423.44;78161;1301;3049442;-68
2023/03/27 08:51:36;;;;;;;9.00;6.40;;;;;;;12.76;91.45;98429.13;78177;1300;3052841;-69
2023/03/27 08:54:08;;;;;;;7.70;5.20;;;;;;;12.79;88.26;98430.84;79463;1297;3013636;-67
2023/03/27 08:56:37;;;;;;;7.70;4.40;;;;;;;12.96;86.82;98437.66;78275;1300;3067162;-68
2023/03/27 08:59:07;;;;;;;5.60;3.70;;;;;;;12.95;84.18;98441.39;79179;1298;3019994;-67
2023/03/27 09:01:40;;;;;;;6.90;3.90;;;;;;;13.08;83.20;98432.41;78072;1303;3050911;-68
2023/03/27 09:04:31;;;;;;;5.00;3.80;;;;;;;13.17;83.34;98441.31;78874;1300;3011393;-69
2023/03/27 09:07:03;;;;;;;3.60;2.50;;;;;;;13.10;67.93;98454.17;78080;1297;3053652;-67
2023/03/27 09:09:38;;;;;;;4.10;2.90;;;;;;;13.23;58.88;98457.47;78126;1297;3050003;-69
2023/03/27 09:12:30;;;;;;;6.80;3.60;;;;;;;13.38;59.19;98447.00;78067;1311;3053802;-67
2023/03/27 09:15:04;;;;;;;8.70;3.80;;;;;;;13.43;59.58;98446.60;78176;1303;3052869;-67
2023/03/27 09:17:33;;;;;;;7.20;3.20;;;;;;;13.63;59.43;98443.96;79384;1302;3013302;-68
2023/03/27 09:20:18;;;;;;;6.90;3.20;;;;;;;13.66;58.06;98453.88;78081;1303;3053034;-66
2023/03/27 09:23:11;;;;;;;4.00;2.70;;;;;;;13.48;57.35;98453.55;78090;1297;3057015;-67
2023/03/27 09:26:19;;;;;;;4.70;2.40;;;;;;;13.49;57.72;98447.49;78088;1297;3050961;-69
2023/03/27 09:29:20;;;;;;;4.30;3.00;;;;;;;13.38;57.13;98442.94;78074;1302;3055357;-68
2023/03/27 09:31:53;;;;;;;3.60;2.50;;;;;;;13.32;57.59;98445.98;78071;1297;3052362;-68
2023/03/27 09:34:26;;;;;;;5.80;2.40;;;;;;;13.47;56.03;98444.48;79445;1302;3013057;-67
2023/03/27 09:37:00;;;;;;;4.50;3.00;;;;;;;13.79;55.15;98439.88;78017;1297;3069517;-67
2023/03/27 09:39:31;;;;;;;3.80;2.60;;;;;;;13.82;54.62;98446.83;79367;1298;3014941;-66
2023/03/27 09:42:29;;;;;;;3.50;2.30;;;;;;;13.78;55.17;98452.28;78153;1297;3049922;-65
2023/03/27 09:44:58;;;;;;;3.70;2.90;;;;;;;13.99;54.59;98452.36;79496;1294;3012054;-68
2023/03/27 09:47:42;;;;;;;5.40;2.30;;;;;;;13.81;53.16;98460.62;78213;1300;3050949;-68
2023/03/27 09:50:24;;;;;;;4.00;2.50;;;;;;;13.72;52.67;98463.70;78264;1302;3053287;-68
2023/03/27 09:53:24;;;;;;;5.40;3.10;;;;;;;14.01;54.13;98459.70;78152;1301;3053788;-66
2023/03/27 09:56:04;;;;;;;5.40;3.40;;;;;;;14.21;54.05;98458.06;78215;1300;3069632;-66
2023/03/27 09:58:39;;;;;;;3.50;2.70;;;;;;;13.99;54.27;98458.34;79416;1296;3011595;-68
2023/03/27 10:01:18;;;;;;;3.50;2.80;;;;;;;13.87;54.91;98457.95;78202;1298;3056887;-66
2023/03/27 10:03:53;;;;;;;3.80;2.70;;;;;;;14.02;54.50;98455.71;78211;1303;3050581;-68
2023/03/27 10:06:43;;;;;;;3.00;2.10;;;;;;;14.13;54.52;98452.69;78142;1296;3054586;-66
2023/03/27 10:09:25;;;;;;;3.50;2.30;;;;;;;14.15;52.89;98453.45;78346;1297;3050073;-68
2023/03/27 10:12:03;;;;;;;5.00;2.90;;;;;;;14.01;53.73;98452.17;78329;1300;3052910;-68
2023/03/27 10:14:36;;;;;;;3.60;2.10;;;;;;;13.95;54.20;98454.25;78173;1300;3052900;-67
2023/03/27 10:17:04;;;;;;;4.30;1.80;;;;;;;13.81;52.61;98460.84;79416;1300;3012000;-67
2023/03/27 10:19:35;;;;;;;3.70;1.70;;;;;;;14.01;51.73;98451.83;78202;1297;3027122;-65
2023/03/27 10:22:08;;;;;;;6.00;2.00;;;;;;;14.16;51.42;98450.77;79450;1296;3011822;-67
2023/03/27 10:24:38;;;;;;;;;;;;;;;14.37;51.08;98447.79;78085;1301;3052782;-67
2023/03/27 10:27:11;;;;;;;1.80;1.50;;;;;;;14.51;48.91;98452.11;79382;1296;3011511;-66
2023/03/27 10:29:43;;;;;;;1.80;1.30;;;;;;;14.68;47.88;98456.08;78135;1301;3049571;-67
2023/03/27 10:32:13;;;;;;;1.50;1.20;;;;;;;14.87;46.84;98445.10;79505;1300;3011650;-67
2023/03/27 10:34:56;;;;;;;3.30;1.40;;;;;;;15.10;46.11;98445.59;78088;1303;3052092;-69
2023/03/27 10:37:56;;;;;;;3.20;1.80;;;;;;;15.15;45.45;98450.73;78199;1297;3069089;-67
2023/03/27 10:40:48;;;;;;;1.90;1.20;;;;;;;15.15;46.23;98448.11;78170;1297;3051759;-69
2023/03/27 10:43:29;;;;;;;3.20;1.20;;;;;;;15.02;45.75;98441.45;79334;1297;3013061;-72
2023/03/27 10:46:05;;;;;;;3.50;1.00;;;;;;;15.14;44.92;98447.14;77989;1303;3050289;-69
2023/03/27 10:49:03;;;;;;;3.00;1.00;;;;;;;15.25;43.57;98446.63;78169;1300;3052124;-68
2023/03/27 10:51:44;;;;;;;2.20;1.00;;;;;;;15.46;43.25;98446.38;78229;1302;3049126;-69
2023/03/27 10:54:37;;;;;;;2.10;0.90;;;;;;;15.39;41.63;98449.58;78159;1302;3053033;-72
2023/03/27 10:57:21;;;;;;;6.40;2.30;;;;;;;15.62;41.86;98439.34;78137;1302;3053469;-67
2023/03/27 10:59:58;;;;;;;3.40;1.50;;;;;;;15.49;41.63;98452.05;78121;1301;3069556;-71
2023/03/27 11:02:39;;;;;;;4.20;1.40;;;;;;;15.69;42.55;98445.52;78060;1303;3051264;-68
2023/03/27 11:05:14;;;;;;;1.60;1.10;;;;;;;15.86;40.75;98450.80;78093;1301;3056715;-69
2023/03/27 11:08:07;;;;;;;2.40;1.10;;;;;;;15.98;40.36;98446.80;79134;1300;3011934;-69
2023/03/27 11:10:42;;;;;;;5.60;1.70;;;;;;;15.83;41.63;98448.83;78141;1298;3055893;-69
2023/03/27 11:13:19;;;;;;;3.00;1.50;;;;;;;15.75;42.17;98448.33;79279;1300;3011470;-71
2023/03/27 11:15:55;;;;;;;1.60;1.10;;;;;;;15.69;42.52;98446.14;78114;1302;3052617;-72
2023/03/27 11:19:01;;;;;;;2.60;1.00;;;;;;;15.35;43.47;98440.90;78102;1301;3052919;-71
2023/03/27 11:21:49;;;;;;;2.10;1.00;;;;;;;15.17;44.04;98442.31;78091;1300;3069278;-69
2023/03/27 11:24:24;;;;;;;0.90;0.80;;;;;;;15.17;44.09;98437.52;77971;1297;3052080;-69
2023/03/27 11:27:04;;;;;;;2.10;1.00;;;;;;;15.43;43.80;98437.71;78093;1297;3056677;-67
2023/03/27 11:29:46;;;;;;;1.30;0.90;;;;;;;15.81;42.51;98441.45;78856;1300;3011866;-70
2023/03/27 11:32:27;;;;;;;1.80;1.00;;;;;;;15.69;41.65;98450.13;78113;1304;3050700;-71
2023/03/27 11:34:59;;;;;;;1.80;0.90;;;;;;;15.52;41.90;98450.80;78114;1301;3053062;-69
2023/03/27 11:38:27;;;;;;;2.70;0.80;;;;;;;15.58;41.69;98450.05;77916;1302;3051241;-69
2023/03/27 11:40:56;;;;;;;2.00;1.10;;;;;;;15.42;41.87;98451.56;77985;1302;3052939;-71
2023/03/27 11:43:24;;;;;;;6.90;1.00;;;;;;;15.26;42.27;98453.99;79369;1301;3013549;-70
2023/03/27 11:45:54;;;;;;;2.10;1.10;;;;;;;15.15;42.95;98458.02;79345;1302;3013553;-68
2023/03/27 11:48:33;;;;;;;2.20;0.90;;;;;;;15.11;43.40;98454.02;78145;1303;3056523;-71